createdAt,value
2018-09-03T00:00:26.538Z,0.00
2018-09-03T00:01:26.559Z,0.00
2018-09-03T00:02:26.523Z,0.00
2018-09-03T00:03:26.555Z,0.00
2018-09-03T00:04:26.594Z,0.00
2018-09-03T00:05:26.601Z,0.00
2018-09-03T00:06:26.609Z,0.00
2018-09-03T00:07:26.588Z,0.00
2018-09-03T00:08:26.654Z,0.00
2018-09-03T00:09:26.616Z,0.00
2018-09-03T00:10:26.617Z,0.00
2018-09-03T00:11:26.667Z,0.00
2018-09-03T00:12:26.672Z,0.00
2018-09-03T00:13:26.687Z,0.00
2018-09-03T00:14:26.673Z,0.00
2018-09-03T00:15:26.722Z,0.00
2018-09-03T00:16:26.716Z,0.00
2018-09-03T00:17:26.724Z,0.00
2018-09-03T00:18:26.749Z,0.00
2018-09-03T00:19:26.743Z,0.00
2018-09-03T00:20:26.756Z,0.00
2018-09-03T00:21:26.789Z,0.00
2018-09-03T00:22:26.787Z,0.00
2018-09-03T00:23:26.789Z,0.00
2018-09-03T00:24:26.812Z,0.00
2018-09-03T00:25:26.878Z,0.00
2018-09-03T00:26:26.825Z,0.00
2018-09-03T00:27:26.837Z,0.00
2018-09-03T00:28:26.843Z,0.00
2018-09-03T00:29:26.868Z,0.00
2018-09-03T00:30:26.913Z,0.00
2018-09-03T00:31:26.907Z,0.00
2018-09-03T00:32:26.901Z,0.00
2018-09-03T00:33:26.914Z,0.00
2018-09-03T00:34:26.918Z,0.00
2018-09-03T00:35:26.921Z,0.00
2018-09-03T00:36:26.968Z,0.00
2018-09-03T00:37:26.954Z,0.00
2018-09-03T00:38:27.003Z,0.00
2018-09-03T00:39:26.964Z,0.00
2018-09-03T00:40:26.985Z,0.00
2018-09-03T00:41:27.049Z,0.00
2018-09-03T00:42:27.021Z,0.00
2018-09-03T00:43:27.033Z,0.00
2018-09-03T00:44:27.046Z,0.00
2018-09-03T00:45:27.085Z,0.00
2018-09-03T00:46:27.056Z,0.00
2018-09-03T00:47:27.075Z,0.00
2018-09-03T00:48:27.104Z,0.00
2018-09-03T00:49:27.093Z,0.00
2018-09-03T00:50:27.141Z,0.00
2018-09-03T00:51:27.165Z,0.00
2018-09-03T00:52:27.130Z,0.00
2018-09-03T00:53:27.145Z,0.00
2018-09-03T00:54:27.188Z,0.00
2018-09-03T01:07:26.006Z,0.00
2018-09-03T01:08:25.971Z,0.00
2018-09-03T01:09:25.993Z,0.00
2018-09-03T01:10:26.049Z,0.00
2018-09-03T01:11:26.004Z,0.00
2018-09-03T01:12:26.034Z,0.00
2018-09-03T01:13:26.060Z,0.00
2018-09-03T01:14:26.075Z,0.00
2018-09-03T01:15:26.064Z,0.00
2018-09-03T01:16:26.120Z,0.00
2018-09-03T01:17:26.119Z,0.00
2018-09-03T01:18:26.091Z,0.00
2018-09-03T01:19:26.110Z,0.00
2018-09-03T01:20:26.133Z,0.00
2018-09-03T01:21:26.185Z,0.00
2018-09-03T01:22:26.174Z,0.00
2018-09-03T01:23:26.146Z,0.00
2018-09-03T01:24:26.174Z,0.00
2018-09-03T01:25:26.203Z,0.00
2018-09-03T01:26:26.192Z,0.00
2018-09-03T01:27:26.223Z,0.00
2018-09-03T01:28:26.214Z,0.00
2018-09-03T01:29:26.238Z,0.00
2018-09-03T01:30:26.226Z,0.00
2018-09-03T01:31:26.258Z,0.00
2018-09-03T01:32:26.309Z,0.00
2018-09-03T01:33:26.317Z,0.00
2018-09-03T01:34:26.311Z,0.00
2018-09-03T01:35:26.299Z,0.00
2018-09-03T01:36:26.327Z,0.00
2018-09-03T01:37:26.346Z,0.00
2018-09-03T01:38:26.333Z,0.00
2018-09-03T01:39:26.343Z,0.00
2018-09-03T01:40:26.388Z,0.00
2018-09-03T01:41:26.372Z,0.00
2018-09-03T01:42:26.414Z,0.00
2018-09-03T01:43:26.408Z,0.00
2018-09-03T01:44:26.440Z,0.00
2018-09-03T01:45:26.412Z,0.00
2018-09-03T01:46:26.412Z,0.00
2018-09-03T01:47:26.472Z,0.00
2018-09-03T01:48:26.452Z,0.00
2018-09-03T01:49:26.495Z,0.00
2018-09-03T01:50:26.492Z,0.00
2018-09-03T01:51:26.525Z,0.00
2018-09-03T01:52:26.482Z,0.00
2018-09-03T01:53:26.520Z,0.00
2018-09-03T01:54:26.539Z,0.00
2018-09-03T01:55:26.554Z,0.00
2018-09-03T01:56:26.542Z,0.00
2018-09-03T01:57:26.548Z,0.00
2018-09-03T01:58:26.593Z,0.00
2018-09-03T01:59:26.580Z,0.00
2018-09-03T02:00:26.629Z,0.00
2018-09-03T02:01:26.589Z,0.00
2018-09-03T02:02:26.619Z,0.00
2018-09-03T02:03:26.636Z,0.00
2018-09-03T02:04:26.628Z,0.00
2018-09-03T02:05:26.690Z,0.00
2018-09-03T02:06:26.705Z,0.00
2018-09-03T02:07:26.671Z,0.00
2018-09-03T02:08:26.686Z,0.00
2018-09-03T02:09:26.737Z,0.00
2018-09-03T02:10:26.713Z,0.00
2018-09-03T02:11:26.759Z,0.00
2018-09-03T02:12:26.815Z,0.00
2018-09-03T02:13:26.765Z,0.00
2018-09-03T02:14:26.767Z,0.00
2018-09-03T02:15:26.760Z,0.00
2018-09-03T02:16:26.779Z,0.00
2018-09-03T02:17:26.817Z,0.00
2018-09-03T02:18:26.807Z,0.00
2018-09-03T02:19:26.816Z,0.00
2018-09-03T02:20:26.861Z,0.00
2018-09-03T02:21:26.830Z,0.00
2018-09-03T02:22:26.880Z,0.00
2018-09-03T02:23:26.888Z,0.00
2018-09-03T02:24:26.938Z,0.00
2018-09-03T02:25:26.900Z,0.00
2018-09-03T02:26:26.910Z,0.00
2018-09-03T02:27:26.915Z,0.00
2018-09-03T02:28:26.935Z,0.00
2018-09-03T02:29:26.971Z,0.00
2018-09-03T02:30:26.936Z,0.00
2018-09-03T02:31:26.967Z,0.00
2018-09-03T02:32:26.996Z,0.00
2018-09-03T02:33:26.983Z,0.00
2018-09-03T02:34:27.025Z,0.00
2018-09-03T02:35:27.018Z,0.00
2018-09-03T02:36:27.019Z,0.00
2018-09-03T02:37:27.022Z,0.00
2018-09-03T02:38:27.041Z,0.00
2018-09-03T02:39:27.079Z,0.00
2018-09-03T02:40:27.071Z,0.00
2018-09-03T02:41:27.113Z,0.00
2018-09-03T02:42:27.099Z,0.00
2018-09-03T02:43:27.104Z,0.00
2018-09-03T02:44:27.141Z,0.00
2018-09-03T02:45:27.149Z,0.00
2018-09-03T02:46:27.145Z,0.00
2018-09-03T02:47:27.169Z,0.00
2018-09-03T02:48:27.163Z,0.00
2018-09-03T02:49:27.166Z,0.00
2018-09-03T02:50:27.198Z,0.00
2018-09-03T02:51:27.194Z,0.00
2018-09-03T02:52:27.261Z,0.00
2018-09-03T02:53:27.224Z,0.00
2018-09-03T02:54:27.221Z,0.00
2018-09-03T02:55:27.276Z,0.00
2018-09-03T02:56:27.273Z,0.00
2018-09-03T02:57:27.299Z,0.00
2018-09-03T02:58:27.324Z,0.00
2018-09-03T02:59:27.286Z,0.00
2018-09-03T03:00:27.300Z,0.00
2018-09-03T03:01:27.307Z,0.00
2018-09-03T03:02:27.350Z,0.00
2018-09-03T03:03:27.326Z,0.00
2018-09-03T03:04:27.349Z,0.00
2018-09-03T03:05:27.382Z,0.00
2018-09-03T03:06:27.379Z,0.00
2018-09-03T03:07:27.440Z,0.00
2018-09-03T03:08:27.426Z,0.00
2018-09-03T03:09:27.398Z,0.00
2018-09-03T03:10:27.420Z,0.00
2018-09-03T03:11:27.441Z,0.00
2018-09-03T03:12:27.479Z,0.00
2018-09-03T03:13:27.450Z,0.00
2018-09-03T03:14:27.498Z,0.00
2018-09-03T03:15:27.477Z,0.00
2018-09-03T03:16:27.502Z,0.00
2018-09-03T03:17:27.498Z,0.00
2018-09-03T03:18:27.515Z,0.00
2018-09-03T03:19:27.573Z,0.00
2018-09-03T03:20:27.549Z,0.00
2018-09-03T03:21:27.550Z,0.00
2018-09-03T03:22:27.567Z,0.00
2018-09-03T03:23:27.598Z,0.00
2018-09-03T03:24:27.584Z,0.00
2018-09-03T03:25:27.607Z,0.00
2018-09-03T03:26:27.600Z,0.00
2018-09-03T03:27:27.630Z,0.00
2018-09-03T03:28:27.668Z,0.00
2018-09-03T03:29:27.663Z,0.00
2018-09-03T03:30:27.695Z,0.00
2018-09-03T03:31:27.659Z,0.00
2018-09-03T03:32:27.726Z,0.00
2018-09-03T03:33:27.681Z,0.00
2018-09-03T03:34:27.711Z,0.00
2018-09-03T03:35:27.697Z,0.00
2018-09-03T03:36:27.726Z,0.00
2018-09-03T03:37:27.758Z,0.00
2018-09-03T03:38:27.750Z,0.00
2018-09-03T03:39:27.778Z,0.00
2018-09-03T03:40:27.783Z,0.00
2018-09-03T03:41:27.806Z,0.00
2018-09-03T03:42:27.801Z,0.00
2018-09-03T03:43:27.803Z,0.00
2018-09-03T03:44:27.814Z,0.00
2018-09-03T03:45:27.830Z,0.00
2018-09-03T03:46:27.853Z,0.00
2018-09-03T03:47:27.882Z,0.00
2018-09-03T03:48:27.873Z,0.00
2018-09-03T03:49:27.881Z,0.00
2018-09-03T03:50:27.899Z,0.00
2018-09-03T03:51:27.926Z,0.00
2018-09-03T03:52:27.934Z,0.00
2018-09-03T03:53:27.912Z,0.00
2018-09-03T03:54:27.941Z,0.00
2018-09-03T03:55:27.943Z,0.00
2018-09-03T03:56:27.992Z,0.00
2018-09-03T03:57:27.967Z,0.00
2018-09-03T03:58:27.978Z,0.00
2018-09-03T03:59:27.983Z,0.00
2018-09-03T04:00:28.051Z,0.00
2018-09-03T04:01:28.015Z,0.00
2018-09-03T04:02:28.025Z,0.00
2018-09-03T04:03:28.061Z,0.00
2018-09-03T04:04:28.061Z,0.00
2018-09-03T04:05:28.068Z,0.00
2018-09-03T04:06:28.103Z,0.00
2018-09-03T04:07:28.097Z,0.00
2018-09-03T04:08:28.114Z,0.00
2018-09-03T04:09:28.116Z,0.00
2018-09-03T04:10:28.127Z,0.00
2018-09-03T04:11:28.139Z,0.00
2018-09-03T04:12:28.160Z,0.00
2018-09-03T04:13:28.151Z,0.00
2018-09-03T04:14:28.196Z,5.63
2018-09-03T04:15:28.174Z,5.63
2018-09-03T04:16:28.170Z,5.63
2018-09-03T04:17:28.237Z,5.63
2018-09-03T04:18:28.207Z,5.63
2018-09-03T04:19:28.210Z,5.63
2018-09-03T04:20:28.216Z,5.63
2018-09-03T04:21:28.257Z,11.25
2018-09-03T04:22:28.277Z,11.25
2018-09-03T04:23:28.451Z,11.25
2018-09-03T04:24:28.295Z,11.25
2018-09-03T04:25:28.291Z,11.25
2018-09-03T04:26:28.302Z,16.88
2018-09-03T04:27:28.336Z,16.88
2018-09-03T04:28:28.366Z,16.88
2018-09-03T04:29:28.339Z,16.88
2018-09-03T04:30:28.344Z,22.50
2018-09-03T04:31:28.366Z,22.50
2018-09-03T04:32:28.378Z,22.50
2018-09-03T04:33:28.412Z,28.13
2018-09-03T04:34:28.392Z,28.13
2018-09-03T04:35:28.402Z,28.13
2018-09-03T04:36:28.478Z,33.75
2018-09-03T04:37:28.408Z,33.75
2018-09-03T04:38:28.449Z,33.75
2018-09-03T04:39:28.468Z,39.38
2018-09-03T04:40:28.460Z,39.38
2018-09-03T04:41:28.492Z,45.00
2018-09-03T04:42:28.468Z,45.00
2018-09-03T04:43:28.536Z,45.00
2018-09-03T04:44:28.512Z,50.63
2018-09-03T04:45:28.526Z,50.63
2018-09-03T04:46:28.534Z,56.25
2018-09-03T04:47:28.596Z,56.25
2018-09-03T04:48:28.545Z,61.88
2018-09-03T04:49:28.555Z,67.50
2018-09-03T04:50:28.588Z,67.50
2018-09-03T04:51:28.588Z,73.13
2018-09-03T04:52:28.625Z,73.13
2018-09-03T04:53:28.637Z,78.75
2018-09-03T04:54:28.639Z,78.75
2018-09-03T04:55:28.623Z,78.75
2018-09-03T04:56:28.622Z,78.75
2018-09-03T04:57:28.653Z,84.38
2018-09-03T04:58:28.689Z,84.38
2018-09-03T04:59:28.723Z,95.63
2018-09-03T05:00:28.694Z,95.63
2018-09-03T05:01:28.703Z,95.63
2018-09-03T05:02:28.721Z,101.25
2018-09-03T05:03:28.728Z,101.25
2018-09-03T05:04:28.746Z,106.88
2018-09-03T05:05:28.775Z,106.88
2018-09-03T05:06:28.738Z,112.50
2018-09-03T05:07:28.762Z,112.50
2018-09-03T05:08:28.766Z,118.13
2018-09-03T05:09:28.780Z,123.75
2018-09-03T05:10:28.815Z,123.75
2018-09-03T05:11:28.799Z,123.75
2018-09-03T05:12:28.904Z,123.75
2018-09-03T05:13:28.818Z,118.13
2018-09-03T05:14:28.838Z,123.75
2018-09-03T05:15:28.872Z,129.38
2018-09-03T05:16:28.892Z,135.00
2018-09-03T05:17:28.882Z,140.63
2018-09-03T05:18:28.911Z,140.63
2018-09-03T05:19:28.907Z,146.25
2018-09-03T05:20:28.962Z,151.88
2018-09-03T05:21:28.929Z,151.88
2018-09-03T05:22:28.941Z,151.88
2018-09-03T05:23:28.944Z,157.50
2018-09-03T05:24:28.968Z,163.13
2018-09-03T05:25:29.005Z,163.13
2018-09-03T05:26:29.009Z,168.75
2018-09-03T05:27:29.017Z,168.75
2018-09-03T05:28:29.001Z,168.75
2018-09-03T05:29:29.014Z,174.38
2018-09-03T05:30:29.022Z,174.38
2018-09-03T05:31:29.070Z,174.38
2018-09-03T05:32:29.056Z,180.00
2018-09-03T05:33:29.072Z,185.63
2018-09-03T05:34:29.081Z,185.63
2018-09-03T05:35:29.109Z,185.63
2018-09-03T05:36:29.119Z,185.63
2018-09-03T05:37:29.137Z,185.63
2018-09-03T05:38:29.130Z,191.25
2018-09-03T05:39:29.127Z,191.25
2018-09-03T05:40:29.204Z,191.25
2018-09-03T05:41:29.156Z,185.63
2018-09-03T05:42:29.256Z,191.25
2018-09-03T05:43:29.329Z,185.63
2018-09-03T05:44:29.305Z,185.63
2018-09-03T05:45:29.211Z,185.63
2018-09-03T05:46:29.195Z,185.63
2018-09-03T05:47:29.256Z,174.38
2018-09-03T05:48:29.297Z,185.63
2018-09-03T05:49:29.274Z,180.00
2018-09-03T05:50:29.310Z,191.25
2018-09-03T05:51:29.283Z,191.25
2018-09-03T05:52:29.301Z,191.25
2018-09-03T05:53:29.288Z,180.00
2018-09-03T05:54:29.313Z,191.25
2018-09-03T05:55:29.329Z,191.25
2018-09-03T05:56:29.324Z,191.25
2018-09-03T05:57:29.326Z,191.25
2018-09-03T05:58:29.342Z,191.25
2018-09-03T05:59:29.369Z,191.25
2018-09-03T06:00:29.415Z,196.88
2018-09-03T06:01:29.393Z,196.88
2018-09-03T06:02:29.412Z,191.25
2018-09-03T06:03:29.414Z,196.88
2018-09-03T06:04:29.464Z,196.88
2018-09-03T06:05:29.436Z,196.88
2018-09-03T06:06:29.446Z,196.88
2018-09-03T06:07:29.502Z,196.88
2018-09-03T06:08:29.487Z,196.88
2018-09-03T06:09:29.474Z,191.25
2018-09-03T06:10:29.500Z,196.88
2018-09-03T06:11:29.561Z,196.88
2018-09-03T06:12:29.501Z,196.88
2018-09-03T06:13:29.512Z,196.88
2018-09-03T06:14:29.537Z,196.88
2018-09-03T06:15:29.578Z,196.88
2018-09-03T06:16:29.582Z,196.88
2018-09-03T06:17:29.612Z,196.88
2018-09-03T06:18:29.630Z,196.88
2018-09-03T06:19:29.637Z,196.88
2018-09-03T06:20:29.625Z,196.88
2018-09-03T06:21:29.659Z,196.88
2018-09-03T06:22:29.684Z,196.88
2018-09-03T06:23:29.851Z,196.88
2018-09-03T06:24:29.659Z,202.50
2018-09-03T06:25:29.666Z,202.50
2018-09-03T06:26:29.665Z,202.50
2018-09-03T06:27:29.701Z,202.50
2018-09-03T06:28:29.719Z,202.50
2018-09-03T06:29:29.704Z,202.50
2018-09-03T06:30:29.760Z,208.13
2018-09-03T06:31:30.283Z,208.13
2018-09-03T06:32:29.755Z,208.13
2018-09-03T06:33:29.796Z,213.75
2018-09-03T06:34:29.785Z,213.75
2018-09-03T06:35:29.801Z,219.38
2018-09-03T06:36:29.820Z,219.38
2018-09-03T06:37:29.803Z,219.38
2018-09-03T06:38:29.848Z,219.38
2018-09-03T06:39:29.832Z,219.38
2018-09-03T06:40:29.877Z,225.00
2018-09-03T06:41:29.862Z,225.00
2018-09-03T06:42:29.869Z,225.00
2018-09-03T06:43:29.912Z,230.63
2018-09-03T06:44:29.919Z,230.63
2018-09-03T06:45:29.949Z,230.63
2018-09-03T06:46:29.929Z,230.63
2018-09-03T06:47:29.932Z,230.63
2018-09-03T06:48:29.961Z,236.25
2018-09-03T06:49:29.956Z,236.25
2018-09-03T06:50:29.997Z,230.63
2018-09-03T06:51:29.997Z,241.88
2018-09-03T06:52:30.006Z,236.25
2018-09-03T06:53:30.096Z,236.25
2018-09-03T06:54:30.019Z,236.25
2018-09-03T06:55:30.090Z,236.25
2018-09-03T06:56:30.062Z,236.25
2018-09-03T06:57:30.050Z,236.25
2018-09-03T06:58:30.079Z,236.25
2018-09-03T06:59:30.132Z,236.25
2018-09-03T07:00:30.103Z,236.25
2018-09-03T07:01:30.132Z,241.88
2018-09-03T07:02:30.106Z,241.88
2018-09-03T07:03:30.160Z,241.88
2018-09-03T07:04:30.146Z,241.88
2018-09-03T07:05:30.144Z,241.88
2018-09-03T07:06:30.208Z,236.25
2018-09-03T07:07:30.166Z,241.88
2018-09-03T07:08:30.224Z,247.50
2018-09-03T07:09:30.203Z,241.88
2018-09-03T07:10:30.215Z,241.88
2018-09-03T07:11:30.215Z,247.50
2018-09-03T07:12:30.231Z,241.88
2018-09-03T07:13:30.274Z,247.50
2018-09-03T07:14:30.276Z,253.13
2018-09-03T07:15:30.321Z,253.13
2018-09-03T07:16:30.277Z,253.13
2018-09-03T07:17:30.303Z,258.75
2018-09-03T07:18:30.315Z,258.75
2018-09-03T07:19:30.340Z,258.75
2018-09-03T07:20:30.355Z,258.75
2018-09-03T07:21:30.413Z,264.38
2018-09-03T07:22:30.362Z,270.00
2018-09-03T07:23:30.389Z,270.00
2018-09-03T07:24:30.398Z,270.00
2018-09-03T07:25:30.411Z,270.00
2018-09-03T07:26:30.431Z,270.00
2018-09-03T07:27:30.465Z,270.00
2018-09-03T07:28:30.454Z,270.00
2018-09-03T07:29:30.461Z,241.88
2018-09-03T07:30:30.478Z,225.00
2018-09-03T07:31:30.476Z,286.88
2018-09-03T07:32:30.521Z,281.25
2018-09-03T07:33:30.487Z,281.25
2018-09-03T07:34:30.508Z,281.25
2018-09-03T07:35:30.537Z,275.63
2018-09-03T07:36:30.577Z,270.00
2018-09-03T07:37:30.542Z,264.38
2018-09-03T07:38:30.593Z,258.75
2018-09-03T07:39:30.620Z,253.13
2018-09-03T07:40:30.612Z,247.50
2018-09-03T07:41:30.610Z,247.50
2018-09-03T07:42:30.632Z,258.75
2018-09-03T07:43:30.632Z,281.25
2018-09-03T07:44:30.677Z,303.75
2018-09-03T07:45:30.636Z,331.88
2018-09-03T07:46:30.676Z,365.63
2018-09-03T07:47:30.712Z,376.88
2018-09-03T07:48:30.692Z,393.75
2018-09-03T07:49:30.732Z,405.00
2018-09-03T07:50:30.715Z,416.25
2018-09-03T07:51:30.760Z,427.50
2018-09-03T07:52:30.788Z,433.13
2018-09-03T07:53:30.737Z,444.38
2018-09-03T07:54:30.772Z,450.00
2018-09-03T07:55:30.836Z,444.38
2018-09-03T07:56:30.835Z,438.75
2018-09-03T07:57:30.934Z,433.13
2018-09-03T07:58:30.808Z,433.13
2018-09-03T07:59:30.959Z,433.13
2018-09-03T08:00:30.940Z,438.75
2018-09-03T08:01:30.911Z,444.38
2018-09-03T08:02:30.925Z,450.00
2018-09-03T08:03:31.024Z,450.00
2018-09-03T08:04:30.901Z,455.63
2018-09-03T08:05:30.921Z,461.25
2018-09-03T08:06:30.935Z,466.88
2018-09-03T08:07:30.973Z,466.88
2018-09-03T08:08:30.969Z,466.88
2018-09-03T08:09:30.947Z,466.88
2018-09-03T08:10:30.976Z,450.00
2018-09-03T08:11:31.000Z,450.00
2018-09-03T08:12:30.990Z,450.00
2018-09-03T08:13:31.032Z,455.63
2018-09-03T08:14:31.066Z,461.25
2018-09-03T08:15:31.056Z,461.25
2018-09-03T08:16:31.077Z,461.25
2018-09-03T08:17:31.088Z,455.63
2018-09-03T08:18:31.092Z,450.00
2018-09-03T08:19:31.116Z,438.75
2018-09-03T08:20:31.121Z,421.88
2018-09-03T08:21:31.168Z,399.38
2018-09-03T08:22:31.145Z,382.50
2018-09-03T08:23:31.158Z,354.38
2018-09-03T08:24:31.162Z,326.25
2018-09-03T08:25:31.180Z,303.75
2018-09-03T08:26:31.197Z,281.25
2018-09-03T08:27:31.213Z,270.00
2018-09-03T08:28:31.230Z,264.38
2018-09-03T08:29:31.231Z,275.63
2018-09-03T08:30:31.266Z,281.25
2018-09-03T08:31:31.265Z,292.50
2018-09-03T08:32:31.304Z,309.38
2018-09-03T08:33:31.279Z,320.63
2018-09-03T08:34:31.492Z,320.63
2018-09-03T08:35:31.347Z,320.63
2018-09-03T08:36:31.319Z,303.75
2018-09-03T08:37:31.367Z,275.63
2018-09-03T08:38:31.345Z,264.38
2018-09-03T08:39:31.364Z,236.25
2018-09-03T08:40:31.367Z,213.75
2018-09-03T08:41:31.425Z,196.88
2018-09-03T08:42:31.410Z,185.63
2018-09-03T08:43:31.429Z,180.00
2018-09-03T08:44:31.541Z,180.00
2018-09-03T08:45:31.454Z,185.63
2018-09-03T08:46:31.468Z,185.63
2018-09-03T08:47:31.518Z,191.25
2018-09-03T08:48:31.495Z,191.25
2018-09-03T08:49:31.481Z,191.25
2018-09-03T08:50:31.496Z,191.25
2018-09-03T08:51:31.528Z,191.25
2018-09-03T08:52:31.576Z,191.25
2018-09-03T08:53:31.547Z,191.25
2018-09-03T08:54:31.600Z,196.88
2018-09-03T08:55:31.562Z,202.50
2018-09-03T08:56:31.665Z,208.13
2018-09-03T08:57:31.613Z,213.75
2018-09-03T08:58:31.613Z,213.75
2018-09-03T08:59:31.626Z,208.13
2018-09-03T09:00:31.653Z,208.13
2018-09-03T09:01:31.658Z,208.13
2018-09-03T09:02:31.700Z,202.50
2018-09-03T09:03:31.694Z,196.88
2018-09-03T09:04:31.729Z,191.25
2018-09-03T09:05:31.705Z,185.63
2018-09-03T09:06:31.730Z,180.00
2018-09-03T09:07:31.760Z,180.00
2018-09-03T09:08:31.753Z,180.00
2018-09-03T09:09:31.803Z,196.88
2018-09-03T09:10:31.809Z,208.13
2018-09-03T09:11:31.773Z,202.50
2018-09-03T09:12:31.799Z,202.50
2018-09-03T09:13:31.812Z,196.88
2018-09-03T09:14:31.850Z,196.88
2018-09-03T09:15:31.877Z,196.88
2018-09-03T09:16:31.850Z,191.25
2018-09-03T09:17:31.922Z,191.25
2018-09-03T09:18:31.872Z,191.25
2018-09-03T09:19:31.898Z,191.25
2018-09-03T09:20:31.916Z,191.25
2018-09-03T09:21:31.941Z,191.25
2018-09-03T09:22:32.029Z,191.25
2018-09-03T09:23:31.991Z,191.25
2018-09-03T09:24:31.985Z,191.25
2018-09-03T09:25:31.986Z,191.25
2018-09-03T09:26:31.990Z,191.25
2018-09-03T09:27:32.102Z,191.25
2018-09-03T09:28:32.004Z,191.25
2018-09-03T09:29:32.034Z,191.25
2018-09-03T09:30:32.025Z,191.25
2018-09-03T09:31:32.050Z,191.25
2018-09-03T09:32:32.083Z,191.25
2018-09-03T09:33:32.122Z,191.25
2018-09-03T09:34:32.085Z,191.25
2018-09-03T09:35:32.104Z,191.25
2018-09-03T09:36:32.161Z,191.25
2018-09-03T09:37:32.126Z,191.25
2018-09-03T09:38:32.185Z,191.25
2018-09-03T09:39:32.142Z,191.25
2018-09-03T09:40:32.180Z,191.25
2018-09-03T09:41:32.213Z,191.25
2018-09-03T09:42:32.196Z,191.25
2018-09-03T09:43:32.244Z,191.25
2018-09-03T09:44:32.255Z,191.25
2018-09-03T09:45:32.221Z,191.25
2018-09-03T09:46:32.259Z,191.25
2018-09-03T09:47:32.283Z,191.25
2018-09-03T09:48:32.300Z,191.25
2018-09-03T09:49:32.321Z,191.25
2018-09-03T09:50:32.294Z,191.25
2018-09-03T09:51:32.380Z,191.25
2018-09-03T09:52:32.333Z,191.25
2018-09-03T09:53:32.344Z,191.25
2018-09-03T09:54:32.843Z,191.25
2018-09-03T09:55:32.371Z,191.25
2018-09-03T09:56:32.402Z,185.63
2018-09-03T09:57:32.391Z,185.63
2018-09-03T09:58:32.423Z,185.63
2018-09-03T09:59:32.500Z,185.63
2018-09-03T10:00:32.437Z,185.63
2018-09-03T10:01:32.460Z,185.63
2018-09-03T10:02:32.473Z,185.63
2018-09-03T10:03:32.533Z,185.63
2018-09-03T10:04:32.477Z,185.63
2018-09-03T10:05:32.491Z,180.00
2018-09-03T10:06:32.557Z,185.63
2018-09-03T10:07:32.550Z,185.63
2018-09-03T10:08:32.555Z,185.63
2018-09-03T10:09:32.580Z,185.63
2018-09-03T10:10:32.614Z,185.63
2018-09-03T10:11:32.594Z,185.63
2018-09-03T10:12:32.617Z,185.63
2018-09-03T10:13:32.620Z,185.63
2018-09-03T10:14:32.657Z,185.63
2018-09-03T10:15:32.648Z,185.63
2018-09-03T10:16:32.690Z,185.63
2018-09-03T10:17:32.654Z,185.63
2018-09-03T10:18:32.724Z,185.63
2018-09-03T10:19:32.692Z,185.63
2018-09-03T10:20:32.754Z,185.63
2018-09-03T10:21:32.724Z,185.63
2018-09-03T10:22:32.730Z,185.63
2018-09-03T10:23:32.763Z,185.63
2018-09-03T10:24:32.795Z,185.63
2018-09-03T10:25:32.786Z,185.63
2018-09-03T10:26:32.783Z,180.00
2018-09-03T10:27:32.872Z,185.63
2018-09-03T10:28:32.856Z,185.63
2018-09-03T10:29:32.908Z,185.63
2018-09-03T10:30:32.867Z,185.63
2018-09-03T10:31:32.900Z,185.63
2018-09-03T10:32:32.886Z,180.00
2018-09-03T10:33:32.906Z,185.63
2018-09-03T10:34:32.955Z,191.25
2018-09-03T10:35:32.998Z,185.63
2018-09-03T10:36:32.970Z,185.63
2018-09-03T10:37:32.939Z,185.63
2018-09-03T10:38:32.975Z,185.63
2018-09-03T10:39:32.985Z,185.63
2018-09-03T10:40:33.002Z,191.25
2018-09-03T10:41:32.995Z,196.88
2018-09-03T10:42:33.050Z,202.50
2018-09-03T10:43:33.057Z,230.63
2018-09-03T10:44:33.063Z,298.13
2018-09-03T10:45:33.070Z,331.88
2018-09-03T10:46:33.065Z,281.25
2018-09-03T10:47:33.104Z,241.88
2018-09-03T10:48:33.086Z,225.00
2018-09-03T10:49:33.150Z,219.38
2018-09-03T10:50:33.116Z,213.75
2018-09-03T10:51:33.145Z,225.00
2018-09-03T10:52:33.171Z,258.75
2018-09-03T10:53:33.176Z,241.88
2018-09-03T10:54:33.201Z,219.38
2018-09-03T10:55:33.198Z,208.13
2018-09-03T10:56:33.206Z,191.25
2018-09-03T10:57:33.232Z,202.50
2018-09-03T10:58:33.250Z,213.75
2018-09-03T10:59:33.273Z,236.25
2018-09-03T11:00:33.316Z,286.88
2018-09-03T11:01:33.291Z,298.13
2018-09-03T11:02:33.309Z,258.75
2018-09-03T11:03:33.307Z,247.50
2018-09-03T11:04:33.360Z,241.88
2018-09-03T11:05:33.358Z,286.88
2018-09-03T11:06:33.382Z,253.13
2018-09-03T11:07:33.365Z,253.13
2018-09-03T11:08:33.397Z,275.63
2018-09-03T11:09:33.401Z,303.75
2018-09-03T11:10:33.400Z,264.38
2018-09-03T11:11:33.448Z,219.38
2018-09-03T11:12:33.468Z,191.25
2018-09-03T11:13:33.457Z,196.88
2018-09-03T11:14:33.471Z,202.50
2018-09-03T11:15:33.487Z,196.88
2018-09-03T11:16:33.497Z,196.88
2018-09-03T11:17:33.594Z,196.88
2018-09-03T11:18:33.526Z,191.25
2018-09-03T11:19:33.537Z,191.25
2018-09-03T11:20:33.542Z,196.88
2018-09-03T11:21:33.716Z,196.88
2018-09-03T11:22:33.676Z,191.25
2018-09-03T11:23:33.635Z,191.25
2018-09-03T11:24:33.658Z,185.63
2018-09-03T11:25:33.612Z,191.25
2018-09-03T11:26:33.627Z,219.38
2018-09-03T11:27:33.678Z,225.00
2018-09-03T11:28:33.726Z,241.88
2018-09-03T11:29:33.677Z,281.25
2018-09-03T11:30:33.703Z,303.75
2018-09-03T11:31:33.723Z,281.25
2018-09-03T11:32:33.720Z,275.63
2018-09-03T11:33:33.766Z,286.88
2018-09-03T11:34:33.779Z,281.25
2018-09-03T11:35:33.824Z,253.13
2018-09-03T11:36:33.783Z,230.63
2018-09-03T11:37:33.791Z,236.25
2018-09-03T11:38:33.821Z,258.75
2018-09-03T11:39:33.832Z,275.63
2018-09-03T11:40:33.873Z,286.88
2018-09-03T11:41:33.894Z,225.00
2018-09-03T11:42:33.860Z,196.88
2018-09-03T11:43:33.904Z,191.25
2018-09-03T11:44:33.910Z,196.88
2018-09-03T11:45:33.951Z,191.25
2018-09-03T11:46:33.961Z,191.25
2018-09-03T11:47:33.961Z,202.50
2018-09-03T11:48:33.966Z,191.25
2018-09-03T11:49:33.998Z,196.88
2018-09-03T11:50:34.003Z,202.50
2018-09-03T11:51:34.043Z,202.50
2018-09-03T11:52:34.053Z,213.75
2018-09-03T11:53:34.078Z,230.63
2018-09-03T11:54:34.157Z,219.38
2018-09-03T11:55:34.079Z,208.13
2018-09-03T11:56:34.072Z,208.13
2018-09-03T11:57:34.161Z,208.13
2018-09-03T11:58:34.152Z,208.13
2018-09-03T11:59:34.124Z,213.75
2018-09-03T12:00:34.165Z,225.00
2018-09-03T12:01:34.152Z,230.63
2018-09-03T12:02:34.159Z,219.38
2018-09-03T12:03:34.256Z,225.00
2018-09-03T12:04:34.222Z,225.00
2018-09-03T12:05:34.207Z,219.38
2018-09-03T12:06:34.259Z,213.75
2018-09-03T12:07:34.241Z,219.38
2018-09-03T12:08:34.309Z,230.63
2018-09-03T12:09:34.293Z,247.50
2018-09-03T12:10:34.321Z,247.50
2018-09-03T12:11:34.307Z,225.00
2018-09-03T12:12:34.476Z,208.13
2018-09-03T12:13:34.335Z,202.50
2018-09-03T12:14:34.399Z,196.88
2018-09-03T12:15:34.366Z,208.13
2018-09-03T12:16:34.371Z,219.38
2018-09-03T12:17:34.434Z,230.63
2018-09-03T12:18:34.435Z,247.50
2018-09-03T12:19:34.441Z,264.38
2018-09-03T12:20:34.428Z,264.38
2018-09-03T12:21:34.464Z,281.25
2018-09-03T12:22:34.487Z,281.25
2018-09-03T12:23:34.498Z,292.50
2018-09-03T12:24:34.528Z,270.00
2018-09-03T12:25:34.524Z,247.50
2018-09-03T12:26:34.535Z,236.25
2018-09-03T12:27:34.595Z,219.38
2018-09-03T12:28:34.564Z,213.75
2018-09-03T12:29:34.578Z,213.75
2018-09-03T12:30:34.584Z,208.13
2018-09-03T12:31:34.603Z,219.38
2018-09-03T12:32:34.655Z,236.25
2018-09-03T12:33:34.623Z,247.50
2018-09-03T12:34:34.653Z,241.88
2018-09-03T12:35:34.661Z,230.63
2018-09-03T12:36:34.702Z,219.38
2018-09-03T12:37:34.694Z,213.75
2018-09-03T12:38:34.697Z,208.13
2018-09-03T12:39:34.743Z,191.25
2018-09-03T12:40:34.754Z,185.63
2018-09-03T12:41:34.821Z,185.63
2018-09-03T12:42:34.758Z,185.63
2018-09-03T12:43:34.764Z,191.25
2018-09-03T12:44:34.788Z,208.13
2018-09-03T12:45:34.864Z,219.38
2018-09-03T12:46:34.820Z,219.38
2018-09-03T12:47:34.838Z,219.38
2018-09-03T12:48:34.873Z,219.38
2018-09-03T12:49:34.858Z,208.13
2018-09-03T12:50:34.923Z,202.50
2018-09-03T12:51:34.923Z,202.50
2018-09-03T12:52:34.931Z,202.50
2018-09-03T12:53:34.930Z,196.88
2018-09-03T12:54:34.946Z,191.25
2018-09-03T12:55:35.021Z,191.25
2018-09-03T12:56:34.995Z,185.63
2018-09-03T12:57:34.983Z,185.63